createdAt,value
2018-11-05T00:01:59.554Z,10.33
2018-11-05T00:04:33.368Z,11.25
2018-11-05T00:07:07.274Z,10.65
2018-11-05T00:09:40.762Z,10.28
2018-11-05T00:12:14.475Z,10.90
2018-11-05T00:14:48.520Z,11.10
2018-11-05T00:17:22.810Z,11.73
2018-11-05T00:19:56.296Z,10.63
2018-11-05T00:22:29.998Z,10.67
2018-11-05T00:25:03.569Z,11.87
2018-11-05T00:27:37.355Z,11.07
2018-11-05T00:30:13.332Z,10.63
2018-11-05T00:32:46.753Z,11.18
2018-11-05T00:35:21.276Z,11.03
2018-11-05T00:37:54.721Z,11.40
2018-11-05T00:40:28.675Z,11.47
2018-11-05T00:43:02.270Z,12.18
2018-11-05T00:45:36.362Z,11.78
2018-11-05T00:48:09.780Z,11.85
2018-11-05T00:50:43.304Z,11.63
2018-11-05T00:53:16.795Z,11.68
2018-11-05T00:55:50.428Z,11.73
2018-11-05T00:58:24.278Z,12.40
2018-11-05T01:00:57.733Z,12.18
2018-11-05T01:03:31.563Z,12.43
2018-11-05T01:06:05.134Z,12.13
2018-11-05T01:08:39.319Z,12.18
2018-11-05T01:11:12.782Z,12.37
2018-11-05T01:13:46.369Z,12.15
2018-11-05T01:16:32.304Z,12.20
2018-11-05T01:19:06.369Z,12.17
2018-11-05T01:21:39.971Z,11.50
2018-11-05T01:24:13.527Z,11.90
2018-11-05T01:26:46.992Z,12.70
2018-11-05T01:31:46.866Z,12.20
2018-11-05T01:36:52.445Z,12.68
2018-11-05T01:39:25.480Z,13.25
2018-11-05T01:41:58.478Z,13.10
2018-11-05T01:44:31.537Z,12.55
2018-11-05T01:47:04.753Z,12.18
2018-11-05T01:49:38.273Z,12.45
2018-11-05T01:52:11.752Z,12.80
2018-11-05T01:54:45.499Z,12.95
2018-11-05T01:57:19.263Z,12.43
2018-11-05T01:59:52.799Z,13.05
2018-11-05T02:02:26.503Z,13.08
2018-11-05T02:05:00.130Z,13.18
2018-11-05T02:07:33.588Z,13.15
2018-11-05T02:10:13.500Z,13.88
2018-11-05T02:12:47.287Z,14.28
2018-11-05T02:15:20.873Z,13.48
2018-11-05T02:20:25.231Z,13.90
2018-11-05T02:22:58.700Z,13.50
2018-11-05T02:25:32.549Z,13.43
2018-11-05T02:28:06.425Z,13.88
2018-11-05T02:30:41.278Z,14.20
2018-11-05T02:33:15.266Z,13.90
2018-11-05T02:35:48.777Z,15.32
2018-11-05T02:38:22.969Z,13.03
2018-11-05T02:40:56.784Z,13.90
2018-11-05T02:43:30.370Z,15.03
2018-11-05T02:46:03.789Z,14.07
2018-11-05T02:48:37.478Z,14.53
2018-11-05T02:51:10.826Z,14.93
2018-11-05T02:53:44.526Z,13.58
2018-11-05T02:56:18.392Z,14.00
2018-11-05T02:58:51.777Z,14.50
2018-11-05T03:01:25.736Z,13.55
2018-11-05T03:03:59.383Z,14.13
2018-11-05T03:06:32.793Z,14.15
2018-11-05T03:09:08.274Z,15.43
2018-11-05T03:11:42.179Z,13.93
2018-11-05T03:14:21.747Z,13.75
2018-11-05T03:16:55.370Z,14.40
2018-11-05T03:19:29.050Z,14.38
2018-11-05T03:22:02.584Z,13.98
2018-11-05T03:24:36.273Z,14.70
2018-11-05T03:27:09.785Z,15.75
2018-11-05T03:29:43.365Z,14.38
2018-11-05T03:32:17.019Z,14.35
2018-11-05T03:34:51.060Z,14.65
2018-11-05T03:37:24.589Z,14.93
2018-11-05T03:39:58.347Z,14.43
2018-11-05T03:42:32.043Z,14.63
2018-11-05T03:45:05.581Z,14.55
2018-11-05T03:47:39.262Z,15.18
2018-11-05T03:50:19.273Z,14.38
2018-11-05T03:52:52.734Z,14.07
2018-11-05T03:55:27.524Z,14.50
2018-11-05T03:58:01.045Z,13.88
2018-11-05T04:00:34.506Z,14.15
2018-11-05T04:03:08.342Z,14.20
2018-11-05T04:05:41.808Z,15.45
2018-11-05T04:08:16.035Z,15.25
2018-11-05T04:10:50.285Z,14.98
2018-11-05T04:13:23.696Z,14.58
2018-11-05T04:16:03.662Z,15.23
2018-11-05T04:18:37.032Z,15.03
2018-11-05T04:21:10.560Z,15.83
2018-11-05T04:23:44.372Z,15.32
2018-11-05T04:26:17.767Z,15.30
2018-11-05T04:28:51.474Z,14.80
2018-11-05T04:31:25.775Z,15.93
2018-11-05T04:33:59.519Z,15.58
2018-11-05T04:36:33.055Z,16.73
2018-11-05T04:39:09.809Z,15.28
2018-11-05T04:41:43.600Z,14.55
2018-11-05T04:44:17.277Z,15.43
2018-11-05T04:46:50.810Z,15.53
2018-11-05T04:49:24.539Z,15.75
2018-11-05T04:51:58.270Z,15.03
2018-11-05T04:54:31.742Z,15.15
2018-11-05T04:57:05.470Z,15.20
2018-11-05T04:59:38.755Z,15.43
2018-11-05T05:02:12.375Z,15.38
2018-11-05T05:04:45.791Z,15.33
2018-11-05T05:07:19.484Z,14.95
2018-11-05T05:09:52.778Z,15.50
2018-11-05T05:12:26.505Z,15.38
2018-11-05T05:15:00.058Z,15.85
2018-11-05T05:17:33.670Z,14.07
2018-11-05T05:20:09.802Z,14.73
2018-11-05T05:22:43.729Z,15.45
2018-11-05T05:25:17.429Z,15.03
2018-11-05T05:27:50.783Z,13.95
2018-11-05T05:30:24.485Z,15.18
2018-11-05T05:32:58.064Z,14.68
2018-11-05T05:35:31.597Z,15.23
2018-11-05T05:38:05.283Z,14.78
2018-11-05T05:40:39.314Z,15.08
2018-11-05T05:43:12.777Z,14.30
2018-11-05T05:45:46.492Z,14.43
2018-11-05T05:48:19.803Z,14.93
2018-11-05T05:50:53.863Z,14.97
2018-11-05T05:54:32.504Z,14.00
2018-11-05T05:57:05.495Z,15.08
2018-11-05T05:59:38.544Z,14.50
2018-11-05T06:02:11.472Z,14.10
2018-11-05T06:04:45.275Z,15.78
2018-11-05T06:07:18.500Z,14.67
2018-11-05T06:09:52.518Z,14.40
2018-11-05T06:12:25.493Z,15.10
2018-11-05T06:14:58.492Z,15.58
2018-11-05T06:18:57.950Z,15.67
2018-11-05T06:23:23.459Z,14.93
2018-11-05T06:25:56.355Z,15.50
2018-11-05T06:28:29.855Z,15.28
2018-11-05T06:31:03.227Z,14.78
2018-11-05T06:33:36.303Z,15.13
2018-11-05T06:36:09.257Z,15.58
2018-11-05T06:38:42.404Z,16.02
2018-11-05T06:41:16.075Z,15.50
2018-11-05T06:59:17.798Z,15.40
2018-11-05T07:01:50.865Z,16.27
2018-11-05T07:06:56.271Z,15.95
2018-11-05T07:09:29.464Z,15.20
2018-11-05T07:12:02.368Z,15.68
2018-11-05T07:14:35.268Z,15.15
2018-11-05T07:17:08.246Z,15.75
2018-11-05T07:19:41.472Z,15.88
2018-11-05T07:22:14.538Z,14.78
2018-11-05T07:24:47.611Z,14.83
2018-11-05T07:27:20.494Z,15.30
2018-11-05T07:29:53.533Z,14.07
2018-11-05T07:32:27.278Z,14.58
2018-11-05T07:35:00.471Z,14.85
2018-11-05T07:37:33.471Z,15.05
2018-11-05T07:40:07.436Z,15.35
2018-11-05T07:42:40.887Z,14.78
2018-11-05T07:47:50.663Z,15.15
2018-11-05T07:50:24.376Z,15.13
2018-11-05T07:52:57.442Z,14.93
2018-11-05T07:55:30.449Z,14.43
2018-11-05T07:58:03.463Z,15.48
2018-11-05T08:00:53.470Z,15.90
2018-11-05T08:03:26.902Z,15.08
2018-11-05T08:08:32.635Z,14.95
2018-11-05T08:11:05.479Z,16.00
2018-11-05T08:13:38.536Z,14.95
2018-11-05T08:16:11.499Z,14.38
2018-11-05T08:18:44.512Z,15.03
2018-11-05T08:21:17.442Z,15.63
2018-11-05T08:23:50.509Z,15.05
2018-11-05T08:26:23.496Z,15.32
2018-11-05T08:28:56.483Z,14.93
2018-11-05T08:31:29.500Z,15.35
2018-11-05T08:34:02.515Z,15.20
2018-11-05T08:36:35.541Z,15.85
2018-11-05T08:39:13.265Z,16.00
2018-11-05T08:41:46.794Z,16.27
2018-11-05T08:44:19.573Z,15.48
2018-11-05T08:46:52.742Z,15.43
2018-11-05T08:49:25.645Z,16.17
2018-11-05T08:51:58.507Z,15.45
2018-11-05T08:54:31.900Z,15.70
2018-11-05T08:57:05.548Z,15.40
2018-11-05T08:59:38.515Z,15.60
2018-11-05T09:02:11.462Z,15.80
2018-11-05T09:04:45.346Z,15.70
2018-11-05T09:07:18.475Z,14.93
2018-11-05T09:09:51.606Z,15.63
2018-11-05T09:12:24.508Z,16.23
2018-11-05T09:14:57.511Z,15.55
2018-11-05T09:17:31.068Z,16.07
2018-11-05T09:20:04.516Z,16.30
2018-11-05T09:22:37.858Z,14.65
2018-11-05T09:25:12.973Z,15.30
2018-11-05T09:27:46.321Z,15.27
2018-11-05T09:30:20.824Z,15.53
2018-11-05T09:32:54.436Z,15.93
2018-11-05T09:35:27.511Z,15.32
2018-11-05T09:38:02.881Z,14.33
2018-11-05T09:40:34.639Z,14.80
2018-11-05T09:43:08.450Z,15.23
2018-11-05T09:45:41.517Z,15.63
2018-11-05T09:48:14.483Z,15.32
2018-11-05T09:50:48.514Z,16.00
2018-11-05T09:53:22.066Z,15.85
2018-11-05T09:55:55.445Z,15.28
2018-11-05T09:58:28.476Z,16.55
2018-11-05T10:01:01.482Z,15.43
2018-11-05T10:03:53.368Z,16.70
2018-11-05T10:06:27.291Z,15.78
2018-11-05T10:09:00.440Z,17.12
2018-11-05T10:11:34.288Z,16.15
2018-11-05T10:14:07.468Z,15.80
2018-11-05T10:16:40.502Z,15.90
2018-11-05T10:19:13.502Z,15.65
2018-11-05T10:21:46.504Z,15.30
2018-11-05T10:24:19.545Z,16.15
2018-11-05T10:26:52.500Z,15.38
2018-11-05T10:29:25.464Z,15.78
2018-11-05T10:31:58.505Z,15.23
2018-11-05T10:34:31.504Z,15.32
2018-11-05T10:37:04.489Z,15.85
2018-11-05T10:39:37.509Z,15.20
2018-11-05T10:42:10.479Z,16.90
2018-11-05T10:44:43.468Z,15.32
2018-11-05T10:47:16.498Z,15.32
2018-11-05T10:49:49.484Z,16.15
2018-11-05T10:52:22.631Z,16.20
2018-11-05T10:54:55.610Z,16.23
2018-11-05T10:57:28.543Z,16.60
2018-11-05T11:00:01.687Z,16.52
2018-11-05T11:02:42.070Z,15.50
2018-11-05T11:05:15.333Z,15.53
2018-11-05T11:07:48.478Z,15.43
2018-11-05T11:10:21.522Z,16.87
2018-11-05T11:12:54.509Z,15.60
2018-11-05T11:15:27.526Z,16.20
2018-11-05T11:18:00.539Z,16.02
2018-11-05T11:20:33.527Z,15.23
2018-11-05T11:23:06.586Z,15.68
2018-11-05T11:25:39.530Z,15.95
2018-11-05T11:28:12.539Z,15.43
2018-11-05T11:30:45.472Z,15.15
2018-11-05T11:33:18.506Z,15.23
2018-11-05T11:35:51.521Z,15.98
2018-11-05T11:38:24.522Z,15.43
2018-11-05T11:40:58.062Z,14.85
2018-11-05T11:43:31.446Z,15.38
2018-11-05T11:46:04.546Z,15.50
2018-11-05T11:48:38.451Z,15.18
2018-11-05T11:51:11.519Z,14.75
2018-11-05T11:53:44.502Z,15.23
2018-11-05T11:56:17.503Z,14.87
2018-11-05T11:58:50.469Z,14.83
2018-11-05T12:01:23.500Z,15.15
2018-11-05T12:03:56.524Z,15.10
2018-11-05T12:06:29.500Z,14.30
2018-11-05T12:14:15.537Z,13.88
2018-11-05T12:16:48.568Z,15.00
2018-11-05T12:19:22.277Z,14.47
2018-11-05T12:21:55.520Z,16.02
2018-11-05T12:24:28.532Z,15.38
2018-11-05T12:27:01.693Z,13.83
2018-11-05T12:29:34.684Z,15.38
2018-11-05T12:32:08.048Z,15.60
2018-11-05T12:34:43.275Z,14.78
2018-11-05T12:37:16.522Z,13.65
2018-11-05T12:39:49.674Z,14.25
2018-11-05T12:42:22.726Z,14.87
2018-11-05T12:44:55.897Z,14.58
2018-11-05T12:47:29.747Z,14.43
2018-11-05T12:50:03.065Z,13.68
2018-11-05T12:52:36.618Z,14.50
2018-11-05T12:55:11.655Z,14.07
2018-11-05T12:57:45.398Z,14.60
2018-11-05T13:00:25.290Z,13.68
2018-11-05T13:03:00.295Z,14.03
2018-11-05T13:05:34.284Z,14.60
2018-11-05T13:08:07.810Z,14.45
2018-11-05T13:10:40.549Z,14.20
2018-11-05T13:13:13.653Z,14.23
2018-11-05T13:15:47.591Z,14.15
2018-11-05T13:18:21.552Z,14.53
2018-11-05T13:20:55.382Z,13.80
2018-11-05T13:23:39.809Z,13.98
2018-11-05T13:26:13.666Z,14.25
2018-11-05T13:28:47.287Z,14.60
2018-11-05T13:31:20.786Z,14.28
2018-11-05T13:33:54.549Z,13.93
2018-11-05T13:36:28.102Z,14.15
2018-11-05T13:39:01.992Z,14.20
2018-11-05T13:41:36.315Z,15.00
2018-11-05T13:44:10.067Z,13.95
2018-11-05T13:46:45.120Z,14.40
2018-11-05T13:49:18.752Z,13.88
2018-11-05T13:51:52.308Z,13.28
2018-11-05T13:54:25.926Z,13.80
2018-11-05T13:56:59.587Z,13.80
2018-11-05T13:59:33.295Z,13.80
2018-11-05T14:02:06.934Z,13.60
2018-11-05T14:07:13.325Z,14.13
2018-11-05T14:09:47.336Z,13.85
2018-11-05T14:12:21.270Z,13.95
2018-11-05T14:14:54.995Z,14.00
2018-11-05T14:17:28.572Z,13.73
2018-11-05T14:20:02.276Z,13.33
2018-11-05T14:22:35.768Z,13.43
2018-11-05T14:25:11.796Z,13.05
2018-11-05T14:27:46.726Z,13.45
2018-11-05T14:30:20.049Z,13.18
2018-11-05T14:32:53.608Z,13.38
2018-11-05T14:35:27.281Z,12.90
2018-11-05T14:38:01.341Z,12.80
2018-11-05T14:40:34.791Z,13.03
2018-11-05T14:43:08.732Z,12.73
2018-11-05T14:45:42.325Z,12.68
2018-11-05T14:48:15.770Z,12.30
2018-11-05T14:50:49.461Z,12.70
2018-11-05T14:53:23.308Z,12.55
2018-11-05T14:55:56.798Z,12.35
2018-11-05T14:58:30.761Z,13.13
2018-11-05T15:01:04.670Z,12.55
2018-11-05T15:03:38.558Z,12.18
2018-11-05T15:06:13.059Z,11.43
2018-11-05T15:08:46.588Z,11.12
2018-11-05T15:11:21.280Z,10.65
2018-11-05T15:13:54.806Z,10.82
2018-11-05T15:16:28.786Z,10.58
2018-11-05T15:19:01.733Z,10.60
2018-11-05T15:21:34.245Z,10.53
2018-11-05T15:24:08.281Z,9.70
2018-11-05T15:26:41.805Z,10.00
2018-11-05T15:29:16.046Z,10.03
2018-11-05T15:31:49.574Z,10.35
2018-11-05T15:34:23.378Z,10.63
2018-11-05T15:36:57.467Z,10.28
2018-11-05T15:39:32.266Z,11.10
2018-11-05T15:42:05.789Z,11.35
2018-11-05T15:44:39.523Z,11.10
2018-11-05T15:47:13.716Z,11.20
2018-11-05T15:49:47.380Z,10.58
2018-11-05T15:52:21.843Z,10.60
2018-11-05T15:54:55.249Z,10.75
2018-11-05T15:57:28.773Z,11.25
2018-11-05T16:00:02.716Z,11.70
2018-11-05T16:02:36.562Z,10.72
2018-11-05T16:05:10.060Z,11.40
2018-11-05T16:07:43.782Z,11.30
2018-11-05T16:10:17.735Z,12.23
2018-11-05T16:12:51.854Z,11.43
2018-11-05T16:17:57.810Z,12.10
2018-11-05T16:20:31.528Z,11.15
2018-11-05T16:23:05.257Z,12.00
2018-11-05T16:25:38.828Z,11.85
2018-11-05T16:28:12.502Z,11.65
2018-11-05T16:30:46.093Z,12.25
2018-11-05T16:33:20.285Z,12.28
2018-11-05T16:35:53.773Z,11.30
2018-11-05T16:38:27.596Z,11.97
2018-11-05T16:41:01.365Z,12.13
2018-11-05T16:43:35.268Z,12.40
2018-11-05T16:46:10.130Z,12.30
2018-11-05T16:48:43.783Z,12.75
2018-11-05T16:51:17.511Z,12.33
2018-11-05T16:53:51.442Z,12.85
2018-11-05T16:56:25.331Z,13.10
2018-11-05T16:58:58.765Z,12.53
2018-11-05T17:01:32.812Z,12.50
2018-11-05T17:04:06.374Z,12.85
2018-11-05T17:06:39.775Z,12.73
2018-11-05T17:09:14.279Z,12.93
2018-11-05T17:11:47.787Z,13.08
2018-11-05T17:14:21.362Z,12.73
2018-11-05T17:16:55.513Z,13.28
2018-11-05T17:19:29.273Z,13.28
2018-11-05T17:22:03.274Z,13.20
2018-11-05T17:24:36.771Z,14.35
2018-11-05T17:27:12.775Z,13.18
2018-11-05T17:29:46.599Z,13.55
2018-11-05T17:32:20.643Z,13.30
2018-11-05T17:34:54.550Z,13.68
2018-11-05T17:37:28.510Z,13.48
2018-11-05T17:40:02.300Z,14.18
2018-11-05T17:42:35.782Z,14.15
2018-11-05T17:45:11.755Z,13.55
2018-11-05T17:47:45.509Z,12.80
2018-11-05T17:50:20.668Z,13.70
2018-11-05T17:52:54.574Z,13.15
2018-11-05T17:55:28.276Z,13.40
2018-11-05T17:58:01.795Z,14.10
2018-11-05T18:00:35.861Z,13.05
2018-11-05T18:03:09.254Z,13.60
2018-11-05T18:05:43.369Z,12.70
2018-11-05T18:08:17.393Z,12.95
2018-11-05T18:10:51.604Z,13.38
2018-11-05T18:13:25.495Z,12.50
2018-11-05T18:15:59.270Z,12.73
2018-11-05T18:18:33.047Z,12.88
2018-11-05T18:21:06.710Z,14.05
2018-11-05T18:23:40.481Z,13.00
2018-11-05T18:26:15.274Z,12.60
2018-11-05T18:28:49.278Z,13.30
2018-11-05T18:31:22.834Z,13.88
2018-11-05T18:33:56.559Z,14.25
2018-11-05T18:36:30.373Z,12.58
2018-11-05T18:39:04.064Z,13.22
2018-11-05T18:41:37.648Z,13.55
2018-11-05T18:44:11.278Z,13.40
2018-11-05T18:46:44.789Z,14.10
2018-11-05T18:49:19.052Z,13.30
2018-11-05T18:51:52.736Z,13.43
2018-11-05T18:54:26.273Z,13.95
2018-11-05T18:57:00.780Z,13.75
2018-11-05T18:59:34.536Z,13.25
2018-11-05T19:02:08.373Z,13.45
2018-11-05T19:04:41.781Z,13.55
2018-11-05T19:07:15.889Z,14.10
2018-11-05T19:12:22.279Z,13.53
2018-11-05T19:14:55.826Z,13.83
2018-11-05T19:17:29.561Z,14.15
2018-11-05T19:20:03.343Z,14.13
2018-11-05T19:22:37.659Z,13.05
2018-11-05T19:25:14.392Z,13.60
2018-11-05T19:27:47.483Z,12.40
2018-11-05T19:30:23.643Z,13.32
2018-11-05T19:32:56.649Z,13.70
2018-11-05T19:35:29.661Z,14.05
2018-11-05T19:38:02.676Z,13.75
2018-11-05T19:40:35.641Z,13.40
2018-11-05T19:43:09.382Z,13.55
2018-11-05T19:45:43.275Z,13.40
2018-11-05T19:48:16.610Z,13.13
2018-11-05T19:50:50.280Z,14.20
2018-11-05T19:56:36.634Z,13.07
2018-11-05T19:59:10.543Z,13.98
2018-11-05T20:01:44.301Z,13.22
2018-11-05T20:04:17.487Z,13.38
2018-11-05T20:06:50.571Z,13.53
2018-11-05T20:09:57.769Z,13.80
2018-11-05T20:12:30.362Z,14.00
2018-11-05T20:15:03.887Z,14.07
2018-11-05T20:17:41.437Z,13.30
2018-11-05T20:20:15.504Z,14.15
2018-11-05T20:22:48.597Z,13.73
2018-11-05T20:25:21.634Z,14.03
2018-11-05T20:27:54.556Z,13.60
2018-11-05T20:30:28.722Z,13.98
2018-11-05T20:33:01.807Z,13.75
2018-11-05T20:35:34.647Z,14.63
2018-11-05T20:38:07.690Z,14.23
2018-11-05T20:40:40.624Z,14.05
2018-11-05T20:43:13.644Z,13.72
2018-11-05T20:45:46.688Z,13.90
2018-11-05T20:48:20.054Z,14.38
2018-11-05T20:50:53.626Z,13.78
2018-11-05T20:53:27.339Z,13.40
2018-11-05T20:56:00.756Z,14.40
2018-11-05T20:58:34.823Z,14.35
2018-11-05T21:01:08.703Z,13.20
2018-11-05T21:03:42.624Z,13.50
2018-11-05T21:06:16.274Z,13.85
2018-11-05T21:08:49.784Z,14.15
2018-11-05T21:11:23.654Z,14.23
2018-11-05T21:13:57.473Z,13.53
2018-11-05T21:16:31.374Z,13.60
2018-11-05T21:19:04.784Z,13.63
2018-11-05T21:21:38.413Z,13.68
2018-11-05T21:24:11.786Z,13.35
2018-11-05T21:26:45.936Z,13.15
2018-11-05T21:29:19.536Z,13.55
2018-11-05T21:31:53.262Z,13.62
2018-11-05T21:34:26.773Z,13.70
2018-11-05T21:37:00.533Z,12.98
2018-11-05T21:39:34.278Z,13.65
2018-11-05T21:42:07.764Z,14.15
2018-11-05T21:44:41.495Z,12.98
2018-11-05T21:47:15.741Z,13.30
2018-11-05T21:49:48.792Z,13.55
2018-11-05T21:52:22.360Z,14.05
2018-11-05T21:54:56.300Z,13.32
2018-11-05T21:57:30.271Z,13.05
2018-11-05T22:00:04.365Z,13.65
2018-11-05T22:02:55.534Z,13.35
2018-11-05T22:05:29.275Z,13.58
2018-11-05T22:08:02.749Z,13.55
2018-11-05T22:10:36.339Z,13.20
2018-11-05T22:13:10.286Z,13.22
2018-11-05T22:15:47.627Z,12.68
2018-11-05T22:18:21.361Z,13.18
2018-11-05T22:20:54.758Z,12.93
2018-11-05T22:23:28.472Z,13.10
2018-11-05T22:26:01.790Z,13.15
2018-11-05T22:28:35.622Z,13.28
2018-11-05T22:31:09.317Z,13.98
2018-11-05T22:33:42.828Z,13.40
2018-11-05T22:36:16.711Z,13.58
2018-11-05T22:38:50.286Z,13.53
2018-11-05T22:41:23.793Z,13.53
2018-11-05T22:43:57.578Z,13.40
2018-11-05T22:46:30.843Z,14.07
2018-11-05T22:49:03.581Z,12.55
2018-11-05T22:51:36.356Z,12.53
2018-11-05T22:54:09.934Z,13.38
2018-11-05T22:59:15.821Z,13.28
2018-11-05T23:01:56.377Z,13.48
2018-11-05T23:06:09.730Z,13.37
2018-11-05T23:08:43.352Z,13.13
2018-11-05T23:11:16.490Z,13.32
2018-11-05T23:13:49.551Z,12.95
2018-11-05T23:16:22.641Z,12.88
2018-11-05T23:18:55.622Z,12.80
2018-11-05T23:21:28.541Z,12.90
2018-11-05T23:24:01.749Z,12.98
2018-11-05T23:26:35.388Z,13.40
2018-11-05T23:29:09.355Z,13.40
2018-11-05T23:31:42.811Z,13.32
2018-11-05T23:34:16.595Z,12.90
2018-11-05T23:36:50.281Z,13.03
2018-11-05T23:39:24.037Z,12.95
2018-11-05T23:41:57.669Z,13.20
2018-11-05T23:44:31.577Z,13.03
2018-11-05T23:47:05.300Z,12.85
2018-11-05T23:49:39.332Z,12.85
2018-11-05T23:52:13.408Z,13.05
2018-11-05T23:54:47.286Z,12.75
2018-11-05T23:57:20.731Z,12.25
2018-11-05T23:59:54.531Z,12.70
